Time;durP1;ratioP1;P1;durP2;ratioP2;P2;SDS_P1;SDS_P2;PMS_P1;PMS_P2;Temp;Humidity;BMP_temperature;BMP_pressure;BME280_temperature;BME280_humidity;BME280_pressure;Samples;Min_cycle;Max_cycle;Signal;HPM_P1;HPM_P2
2021/04/12 00:00:01;;;;;;;4.57;1.00;;;3.10;99.90;;;;;;5018202;28;20087;-66
2021/04/12 00:02:51;;;;;;;8.93;1.30;;;3.10;99.90;;;;;;5017115;28;20078;-66
2021/04/12 00:05:38;;;;;;;6.18;1.13;;;3.10;99.90;;;;;;5017132;28;20025;-66
2021/04/12 00:08:34;;;;;;;11.68;3.72;;;3.00;99.90;;;;;;5017129;28;20500;-66
2021/04/12 00:11:31;;;;;;;7.38;1.30;;;3.00;99.90;;;;;;5018262;28;20575;-66
2021/04/12 00:14:00;;;;;;;4.93;1.15;;;3.10;99.90;;;;;;5017457;28;20022;-66
2021/04/12 00:16:54;;;;;;;9.68;1.38;;;3.10;99.90;;;;;;5014193;28;20473;-66
2021/04/12 00:19:44;;;;;;;6.32;1.25;;;3.20;99.90;;;;;;5016003;28;20110;-66
2021/04/12 00:22:24;;;;;;;4.38;1.10;;;3.20;99.90;;;;;;5017195;28;20544;-66
2021/04/12 00:24:54;;;;;;;;;;;3.20;99.90;;;;;;5016375;28;20123;-66
2021/04/12 00:27:52;;;;;;;4.63;1.38;;;3.20;99.90;;;;;;5014799;28;20013;-66
2021/04/12 00:30:23;;;;;;;2.50;0.82;;;3.10;99.90;;;;;;5015904;28;20046;-66
2021/04/12 00:33:02;;;;;;;4.15;0.57;;;3.10;99.90;;;;;;5017671;28;20033;-65
2021/04/12 00:35:53;;;;;;;2.33;0.60;;;3.10;99.90;;;;;;5017122;28;20450;-65
2021/04/12 00:38:34;;;;;;;1.60;0.57;;;3.10;99.90;;;;;;5015654;28;20073;-65
2021/04/12 00:41:32;;;;;;;2.50;1.20;;;3.00;99.90;;;;;;5014673;28;20040;-66
2021/04/12 00:44:41;;;;;;;3.42;0.70;;;3.00;99.90;;;;;;5017017;28;20053;-66
2021/04/12 00:47:43;;;;;;;5.30;0.90;;;3.00;99.90;;;;;;5013913;28;20043;-65
2021/04/12 00:50:21;;;;;;;7.15;1.17;;;3.00;99.90;;;;;;5013937;28;20030;-66
2021/04/12 00:53:01;;;;;;;4.63;1.00;;;3.00;99.90;;;;;;5015516;28;20033;-66
2021/04/12 00:55:55;;;;;;;2.78;0.80;;;2.90;99.90;;;;;;5016974;28;20021;-66
2021/04/12 00:58:24;;;;;;;6.85;1.17;;;3.00;99.90;;;;;;5013314;28;20559;-66
2021/04/12 01:01:08;;;;;;;3.92;0.75;;;2.90;99.90;;;;;;5016005;28;20392;-66
2021/04/12 01:03:52;;;;;;;4.22;1.08;;;2.90;99.90;;;;;;5015072;28;20033;-65
2021/04/12 01:06:33;;;;;;;7.05;1.33;;;2.90;99.90;;;;;;5018381;28;20083;-66
2021/04/12 01:09:14;;;;;;;2.40;0.93;;;2.90;99.90;;;;;;5012166;28;20044;-65
2021/04/12 01:12:04;;;;;;;2.67;0.80;;;2.90;99.90;;;;;;5013541;28;20075;-65
2021/04/12 01:14:30;;;;;;;3.17;0.70;;;2.90;99.90;;;;;;5014544;28;20029;-66
2021/04/12 01:17:11;;;;;;;5.13;1.20;;;2.90;99.90;;;;;;5013207;28;20086;-65
2021/04/12 01:20:18;;;;;;;8.18;1.27;;;2.90;99.90;;;;;;5015056;28;20037;-64
2021/04/12 01:23:06;;;;;;;4.30;1.00;;;2.90;99.90;;;;;;5011678;28;20033;-66
2021/04/12 01:25:54;;;;;;;8.10;1.20;;;2.80;99.90;;;;;;5014812;28;20033;-65
2021/04/12 01:28:42;;;;;;;7.68;1.30;;;2.80;99.90;;;;;;5014931;28;20897;-65
2021/04/12 01:31:29;;;;;;;4.25;1.35;;;2.80;99.90;;;;;;5013416;28;20055;-65
2021/04/12 01:34:14;;;;;;;6.20;1.23;;;2.80;99.90;;;;;;5008194;28;20040;-65
2021/04/12 01:37:08;;;;;;;5.20;0.95;;;2.80;99.90;;;;;;5013270;28;20351;-65
2021/04/12 01:39:59;;;;;;;6.00;1.20;;;2.80;99.90;;;;;;5014288;28;20569;-65
2021/04/12 01:42:36;;;;;;;3.50;1.52;;;2.80;99.90;;;;;;5012070;28;20068;-65
2021/04/12 01:45:36;;;;;;;4.85;1.25;;;2.70;99.90;;;;;;5016323;28;20444;-65
2021/04/12 01:48:15;;;;;;;2.47;0.93;;;2.70;99.90;;;;;;5015159;28;20025;-64
2021/04/12 01:50:58;;;;;;;5.90;1.10;;;2.80;99.90;;;;;;5014282;28;20032;-65
2021/04/12 01:53:46;;;;;;;5.68;1.02;;;2.80;99.90;;;;;;5006141;28;20404;-64
2021/04/12 01:56:27;;;;;;;9.07;1.30;;;2.80;99.90;;;;;;5015096;28;20713;-65
2021/04/12 01:59:23;;;;;;;4.32;0.95;;;2.80;99.90;;;;;;5013106;28;20412;-64
2021/04/12 02:02:09;;;;;;;3.67;0.90;;;2.80;99.90;;;;;;5012042;28;20103;-65
2021/04/12 02:05:00;;;;;;;5.75;0.90;;;2.80;99.90;;;;;;5016140;28;20028;-65
2021/04/12 02:07:31;;;;;;;2.85;1.27;;;2.80;99.90;;;;;;5012134;28;20589;-65
2021/04/12 02:10:21;;;;;;;4.00;0.70;;;2.80;99.90;;;;;;5016201;28;20069;-65
2021/04/12 02:13:15;;;;;;;2.00;0.60;;;2.70;99.90;;;;;;5014432;28;20026;-66
2021/04/12 02:16:30;;;;;;;1.73;0.60;;;2.70;99.90;;;;;;5015526;28;20045;-65
2021/04/12 02:19:31;;;;;;;4.38;0.68;;;2.70;99.90;;;;;;5014530;28;20037;-65
2021/04/12 02:22:34;;;;;;;2.85;0.80;;;2.80;99.90;;;;;;5014388;28;20076;-65
2021/04/12 02:25:03;;;;;;;2.28;0.80;;;2.70;99.90;;;;;;5014536;28;20037;-66
2021/04/12 02:27:34;;;;;;;1.90;0.70;;;2.80;99.90;;;;;;5012757;28;20369;-65
2021/04/12 02:30:29;;;;;;;5.90;0.90;;;2.70;99.90;;;;;;5015180;28;20552;-65
2021/04/12 02:33:34;;;;;;;2.88;0.80;;;2.80;99.90;;;;;;5012425;28;20045;-66
2021/04/12 02:36:06;;;;;;;6.05;1.20;;;2.80;99.90;;;;;;5015281;28;20033;-65
2021/04/12 02:39:00;;;;;;;1.45;0.68;;;2.80;99.90;;;;;;5015348;28;20096;-65
2021/04/12 02:41:45;;;;;;;2.05;0.73;;;2.80;99.90;;;;;;5015019;28;20164;-66
2021/04/12 02:44:34;;;;;;;2.70;0.75;;;2.80;99.90;;;;;;5018970;28;20032;-66
2021/04/12 02:47:11;;;;;;;7.47;1.30;;;2.80;99.90;;;;;;5017593;28;20029;-65
2021/04/12 02:49:56;;;;;;;7.43;1.33;;;2.80;99.90;;;;;;5019419;28;20559;-66
2021/04/12 02:52:34;;;;;;;7.63;2.00;;;2.80;99.90;;;;;;5018790;28;20032;-66
2021/04/12 02:55:10;;;;;;;8.93;1.67;;;2.90;99.90;;;;;;5017152;28;20362;-66
2021/04/12 02:58:02;;;;;;;20.17;3.83;;;2.90;99.90;;;;;;5014737;28;20620;-65
2021/04/12 03:00:47;;;;;;;7.70;1.60;;;3.00;99.90;;;;;;5015917;28;20038;-65
2021/04/12 03:03:46;;;;;;;5.68;1.13;;;3.10;99.90;;;;;;5018596;28;20059;-65
2021/04/12 03:06:32;;;;;;;6.65;1.40;;;3.10;99.90;;;;;;5016564;28;20036;-65
2021/04/12 03:09:49;;;;;;;4.07;1.45;;;3.20;99.90;;;;;;5017076;28;20128;-64
2021/04/12 03:12:45;;;;;;;6.47;1.40;;;3.30;99.90;;;;;;5003114;28;20040;-65
2021/04/12 03:15:38;;;;;;;7.05;1.30;;;3.30;99.90;;;;;;5017384;28;20041;-65
2021/04/12 03:18:35;;;;;;;7.55;1.13;;;3.30;99.90;;;;;;5017459;28;20401;-65
2021/04/12 03:21:19;;;;;;;5.78;1.25;;;3.30;99.90;;;;;;5018286;28;20045;-65
2021/04/12 03:24:22;;;;;;;9.52;1.48;;;3.30;99.90;;;;;;5016948;28;20548;-64
2021/04/12 03:27:09;;;;;;;9.75;1.30;;;3.30;99.90;;;;;;5016505;28;20041;-64
2021/04/12 03:30:01;;;;;;;14.50;1.42;;;3.30;99.90;;;;;;5017487;28;20037;-65
2021/04/12 03:32:51;;;;;;;8.07;1.63;;;3.30;99.90;;;;;;5030403;28;20030;-66
2021/04/12 03:35:36;;;;;;;8.10;1.40;;;3.30;99.90;;;;;;5015986;28;20283;-65
2021/04/12 03:38:37;;;;;;;4.72;1.50;;;3.30;99.90;;;;;;5015803;28;20025;-64
2021/04/12 03:41:31;;;;;;;10.27;1.35;;;3.20;99.90;;;;;;5016062;28;20049;-65
2021/04/12 03:44:26;;;;;;;9.23;1.15;;;3.20;99.90;;;;;;5018733;28;20096;-64
2021/04/12 03:47:01;;;;;;;4.68;1.30;;;3.20;99.90;;;;;;5016093;28;20702;-64
2021/04/12 03:49:34;;;;;;;7.70;1.23;;;3.20;99.90;;;;;;5016817;28;20067;-64
2021/04/12 03:52:06;;;;;;;5.32;1.52;;;3.20;99.90;;;;;;5014332;28;20543;-64
2021/04/12 03:55:01;;;;;;;10.93;2.08;;;3.20;99.90;;;;;;5014566;28;20064;-65
2021/04/12 03:58:05;;;;;;;4.90;0.93;;;3.20;99.90;;;;;;5012667;28;20135;-65
2021/04/12 04:00:49;;;;;;;3.33;1.27;;;3.20;99.90;;;;;;4988232;28;20068;-67
2021/04/12 04:03:37;;;;;;;8.60;1.55;;;3.20;99.90;;;;;;5018337;28;20493;-66
2021/04/12 04:06:17;;;;;;;8.73;1.38;;;3.20;99.90;;;;;;5013728;28;20535;-66
2021/04/12 04:08:46;;;;;;;4.45;1.42;;;3.20;99.90;;;;;;5008125;28;20033;-66
2021/04/12 04:11:24;;;;;;;7.47;1.25;;;3.20;99.90;;;;;;5011643;28;20031;-66
2021/04/12 04:14:08;;;;;;;4.80;1.08;;;3.20;99.90;;;;;;5013833;28;20029;-66
2021/04/12 04:17:03;;;;;;;7.68;1.45;;;3.20;99.90;;;;;;5008535;28;20100;-66
2021/04/12 04:20:05;;;;;;;13.52;2.03;;;3.20;99.90;;;;;;5010722;28;20049;-65
2021/04/12 04:23:13;;;;;;;5.15;1.00;;;3.20;99.90;;;;;;5013565;28;20056;-66
2021/04/12 04:26:01;;;;;;;3.38;0.73;;;3.20;99.90;;;;;;5014779;28;20029;-66
2021/04/12 04:28:59;;;;;;;6.82;1.65;;;3.20;99.90;;;;;;5016047;28;20079;-66
2021/04/12 04:31:59;;;;;;;6.10;1.17;;;3.20;99.90;;;;;;5012296;28;20033;-66
2021/04/12 04:34:59;;;;;;;9.10;1.55;;;3.20;99.90;;;;;;5013717;28;20488;-66
2021/04/12 04:38:05;;;;;;;6.65;1.20;;;3.10;99.90;;;;;;5016891;28;20037;-66
2021/04/12 04:40:43;;;;;;;8.82;1.92;;;3.10;99.90;;;;;;5011856;28;20423;-66
2021/04/12 04:43:15;;;;;;;9.07;1.27;;;3.10;99.90;;;;;;5010328;28;20072;-66
2021/04/12 04:46:09;;;;;;;14.23;2.15;;;3.20;99.90;;;;;;5015874;28;20481;-66
2021/04/12 04:48:52;;;;;;;6.85;1.00;;;3.10;99.90;;;;;;5009948;28;20036;-66
2021/04/12 04:51:43;;;;;;;4.13;1.15;;;3.20;99.90;;;;;;5015602;28;20044;-66
2021/04/12 04:54:42;;;;;;;8.63;1.55;;;3.20;99.90;;;;;;5005085;28;20040;-66
2021/04/12 04:57:08;;;;;;;8.55;1.55;;;3.20;99.90;;;;;;5009890;28;20576;-66
2021/04/12 04:59:53;;;;;;;7.57;1.00;;;3.30;99.90;;;;;;5009197;28;20132;-66
2021/04/12 05:03:01;;;;;;;9.95;1.02;;;3.30;99.90;;;;;;5006088;28;20793;-66
2021/04/12 05:05:51;;;;;;;5.00;1.40;;;3.30;99.90;;;;;;4984516;28;20637;-66
2021/04/12 05:08:17;;;;;;;;;;;3.40;99.90;;;;;;5013203;28;20033;-66
2021/04/12 05:11:04;;;;;;;7.15;1.02;;;3.50;99.90;;;;;;5016346;28;20375;-66
2021/04/12 05:14:12;;;;;;;9.75;1.10;;;3.50;99.90;;;;;;5015677;28;20026;-68
2021/04/12 05:17:17;;;;;;;7.72;1.30;;;3.60;99.90;;;;;;5015896;28;20055;-66
2021/04/12 05:19:53;;;;;;;6.68;1.13;;;3.60;99.90;;;;;;5016169;28;20512;-66
2021/04/12 05:22:57;;;;;;;12.15;1.38;;;3.70;99.90;;;;;;5015922;28;20033;-67
2021/04/12 05:25:47;;;;;;;6.20;0.90;;;3.80;99.90;;;;;;5013470;28;20145;-67
2021/04/12 05:28:12;;;;;;;7.25;1.35;;;3.80;99.90;;;;;;5012779;28;20442;-66
2021/04/12 05:30:59;;;;;;;11.23;1.30;;;3.80;99.90;;;;;;5008365;28;20468;-66
2021/04/12 05:33:49;;;;;;;10.50;3.10;;;3.80;99.90;;;;;;5016636;28;20046;-67
2021/04/12 05:36:39;;;;;;;8.68;1.48;;;3.80;99.90;;;;;;5017349;28;20142;-69
2021/04/12 05:39:42;;;;;;;12.88;1.65;;;3.80;99.90;;;;;;5017058;28;20615;-67
2021/04/12 05:42:23;;;;;;;8.85;1.30;;;3.80;99.90;;;;;;5019026;28;20128;-67
2021/04/12 05:44:49;;;;;;;9.77;1.92;;;3.80;99.90;;;;;;5016068;28;20033;-67
2021/04/12 05:47:30;;;;;;;10.02;1.10;;;3.90;99.90;;;;;;5016032;28;20497;-67
2021/04/12 05:50:13;;;;;;;8.43;1.95;;;3.90;99.90;;;;;;5010228;28;20489;-67
2021/04/12 05:52:59;;;;;;;5.93;1.33;;;4.00;99.90;;;;;;5016377;28;20724;-67
2021/04/12 05:55:47;;;;;;;7.00;1.00;;;4.10;99.90;;;;;;5013827;28;20124;-67
2021/04/12 05:58:44;;;;;;;6.43;1.23;;;4.20;99.90;;;;;;5015007;28;20025;-66
2021/04/12 06:01:22;;;;;;;8.00;1.35;;;4.30;99.90;;;;;;5016460;28;20042;-67
2021/04/12 06:04:11;;;;;;;4.97;1.10;;;4.30;99.90;;;;;;5013133;28;20109;-66
2021/04/12 06:06:49;;;;;;;9.68;1.65;;;4.40;99.90;;;;;;5016319;28;20040;-67
2021/04/12 06:09:21;;;;;;;8.63;1.50;;;4.50;99.90;;;;;;5016529;28;20037;-67
2021/04/12 06:12:09;;;;;;;10.60;0.85;;;4.60;99.90;;;;;;5016941;28;20021;-67
2021/04/12 06:15:13;;;;;;;5.55;1.10;;;4.70;99.90;;;;;;5016848;28;20456;-67
2021/04/12 06:17:46;;;;;;;11.43;1.48;;;4.80;99.90;;;;;;5016429;28;20044;-67
2021/04/12 06:20:49;;;;;;;6.32;1.25;;;4.90;99.90;;;;;;5018722;28;20045;-67
2021/04/12 06:23:54;;;;;;;4.25;1.02;;;5.00;99.90;;;;;;5020623;28;20033;-67
2021/04/12 06:26:26;;;;;;;4.53;1.08;;;5.10;99.90;;;;;;5020686;28;20041;-67
2021/04/12 06:29:22;;;;;;;11.10;1.40;;;5.20;99.90;;;;;;5018732;28;20408;-67
2021/04/12 06:32:15;;;;;;;8.32;1.38;;;5.30;99.90;;;;;;5023158;28;20049;-67
2021/04/12 06:35:04;;;;;;;7.90;1.85;;;5.50;99.90;;;;;;5019017;28;20082;-67
2021/04/12 06:38:08;;;;;;;7.72;1.48;;;5.60;99.90;;;;;;5019180;28;20404;-66
2021/04/12 06:41:11;;;;;;;5.95;1.30;;;5.70;99.90;;;;;;5019429;28;20041;-67
2021/04/12 06:43:55;;;;;;;13.45;2.05;;;5.80;99.90;;;;;;5019820;28;20021;-67
2021/04/12 06:46:46;;;;;;;7.18;1.02;;;5.90;99.90;;;;;;5033997;28;20035;-67
2021/04/12 06:49:36;;;;;;;7.50;1.15;;;5.80;99.90;;;;;;5018317;28;20556;-67
2021/04/12 06:52:01;;;;;;;;;;;5.90;99.90;;;;;;5019546;28;20037;-67
2021/04/12 06:54:53;;;;;;;7.57;0.90;;;6.00;99.90;;;;;;5019121;28;19975;-68
2021/04/12 06:57:24;;;;;;;5.80;1.08;;;6.10;99.90;;;;;;5010218;28;20612;-67
2021/04/12 07:00:08;;;;;;;12.68;1.85;;;6.20;99.90;;;;;;5017643;28;20301;-66
2021/04/12 07:03:12;;;;;;;9.50;1.30;;;6.30;99.90;;;;;;5019830;28;20036;-67
2021/04/12 07:06:15;;;;;;;3.97;1.38;;;6.50;99.90;;;;;;5017459;28;20503;-67
2021/04/12 07:09:13;;;;;;;6.03;1.35;;;6.50;99.90;;;;;;5016357;28;20053;-67
2021/04/12 07:12:17;;;;;;;4.45;1.15;;;6.50;99.90;;;;;;5014980;28;20091;-67
2021/04/12 07:15:09;;;;;;;4.63;1.23;;;6.60;99.90;;;;;;5018948;28;20601;-66
2021/04/12 07:17:50;;;;;;;3.47;1.13;;;6.70;99.90;;;;;;5017422;28;20377;-66
2021/04/12 07:20:53;;;;;;;4.68;0.93;;;6.90;99.90;;;;;;5019428;28;20382;-67
2021/04/12 07:23:38;;;;;;;5.50;1.17;;;7.00;99.90;;;;;;5019580;28;20029;-66
2021/04/12 07:26:30;;;;;;;13.18;1.55;;;7.00;99.90;;;;;;5019449;28;20409;-65
2021/04/12 07:29:17;;;;;;;5.00;0.93;;;7.00;99.90;;;;;;5017710;28;20119;-66
2021/04/12 07:32:02;;;;;;;11.20;1.10;;;7.10;99.90;;;;;;5015957;28;20519;-66
2021/04/12 07:34:37;;;;;;;7.65;1.00;;;7.20;99.90;;;;;;5016442;28;20472;-66
2021/04/12 07:37:15;;;;;;;1.95;0.57;;;7.30;99.90;;;;;;5015302;28;20029;-67
2021/04/12 07:40:20;;;;;;;7.60;0.82;;;7.30;99.90;;;;;;5018179;28;20037;-66
2021/04/12 07:43:24;;;;;;;6.13;1.10;;;7.50;99.90;;;;;;5019951;28;20037;-67
2021/04/12 07:46:12;;;;;;;5.78;0.90;;;7.70;99.90;;;;;;5017667;28;20481;-66
2021/04/12 07:48:50;;;;;;;4.85;1.10;;;7.80;99.90;;;;;;5018589;28;20025;-66
2021/04/12 07:51:37;;;;;;;7.90;1.00;;;7.60;99.90;;;;;;5018918;28;20056;-67
2021/04/12 07:54:28;;;;;;;5.45;1.15;;;7.70;99.90;;;;;;5013562;28;20083;-66
2021/04/12 07:57:30;;;;;;;5.80;0.70;;;7.80;99.90;;;;;;5013634;28;20032;-67
2021/04/12 08:00:32;;;;;;;7.90;1.33;;;8.00;99.90;;;;;;5018570;28;20088;-67
2021/04/12 08:03:35;;;;;;;4.38;1.33;;;8.20;99.90;;;;;;5015067;28;20880;-67
2021/04/12 08:06:39;;;;;;;10.90;1.45;;;7.80;99.90;;;;;;5017142;28;20100;-67
2021/04/12 08:09:23;;;;;;;8.10;1.10;;;7.70;99.90;;;;;;5005387;28;20071;-66
2021/04/12 08:12:10;;;;;;;6.50;1.05;;;7.90;99.90;;;;;;5017211;28;20041;-67
2021/04/12 08:14:57;;;;;;;6.90;1.25;;;7.90;99.90;;;;;;5019296;28;20519;-67
2021/04/12 08:17:51;;;;;;;9.98;1.98;;;7.60;99.90;;;;;;5017347;28;20033;-66
2021/04/12 08:20:34;;;;;;;2.70;1.30;;;7.40;99.90;;;;;;5017444;28;20049;-67
2021/04/12 08:23:22;;;;;;;6.63;1.23;;;7.60;99.90;;;;;;5016186;28;20339;-66
2021/04/12 08:26:25;;;;;;;5.82;1.02;;;7.70;99.90;;;;;;5017717;28;20122;-66
2021/04/12 08:29:09;;;;;;;9.23;1.63;;;7.70;99.90;;;;;;5012944;28;20369;-67
2021/04/12 08:31:57;;;;;;;3.72;1.05;;;7.70;99.90;;;;;;5015220;28;20033;-67
2021/04/12 08:35:07;;;;;;;13.18;1.70;;;8.00;99.90;;;;;;5018243;28;20136;-67
2021/04/12 08:38:15;;;;;;;5.20;1.10;;;8.10;99.90;;;;;;5017045;28;20033;-67
2021/04/12 08:41:13;;;;;;;6.05;1.27;;;7.40;99.90;;;;;;5017106;28;20040;-67
2021/04/12 08:44:03;;;;;;;7.60;1.35;;;7.70;99.90;;;;;;5018940;28;20052;-67
2021/04/12 08:46:48;;;;;;;5.90;1.25;;;8.20;99.90;;;;;;5013423;28;20025;-67
2021/04/12 08:49:14;;;;;;;8.52;1.42;;;8.10;99.90;;;;;;5016244;28;20040;-66
2021/04/12 08:51:46;;;;;;;9.73;1.98;;;7.80;99.90;;;;;;5016893;28;20442;-66
2021/04/12 08:54:44;;;;;;;5.97;1.60;;;7.50;99.90;;;;;;5016136;28;20033;-67
2021/04/12 08:57:28;;;;;;;6.32;1.10;;;7.60;99.90;;;;;;5017166;28;20029;-67
2021/04/12 09:00:17;;;;;;;8.77;1.13;;;7.90;99.90;;;;;;5014489;28;20034;-68
2021/04/12 09:03:15;;;;;;;7.63;3.00;;;7.90;99.90;;;;;;5018317;28;20076;-68
2021/04/12 09:05:47;;;;;;;4.45;1.02;;;8.20;99.90;;;;;;5019840;28;20026;-68
2021/04/12 09:08:41;;;;;;;12.15;1.73;;;8.60;99.90;;;;;;5016571;28;20029;-68
2021/04/12 09:12:03;;;;;;;7.07;1.83;;;8.90;99.90;;;;;;5013154;28;20025;-68
2021/04/12 09:14:54;;;;;;;7.43;1.23;;;8.70;99.90;;;;;;4994765;28;20379;-68
2021/04/12 09:17:31;;;;;;;12.20;1.67;;;8.90;99.90;;;;;;4995633;28;20037;-68
2021/04/12 09:20:30;;;;;;;9.07;1.42;;;9.30;99.90;;;;;;5011955;28;20084;-68
2021/04/12 09:23:22;;;;;;;3.58;1.27;;;9.70;99.90;;;;;;5015763;28;20040;-68
2021/04/12 09:26:25;;;;;;;8.85;1.17;;;9.70;99.90;;;;;;5016180;28;20567;-68
2021/04/12 09:28:54;;;;;;;7.30;1.45;;;9.30;99.90;;;;;;5016684;28;20025;-68
2021/04/12 09:31:29;;;;;;;5.82;1.15;;;9.50;99.90;;;;;;5017250;28;20030;-69
2021/04/12 09:34:16;;;;;;;6.32;0.95;;;9.70;99.90;;;;;;5013333;28;20032;-69
2021/04/12 09:37:10;;;;;;;7.43;1.13;;;9.40;99.90;;;;;;5015926;28;20454;-69
2021/04/12 09:40:12;;;;;;;3.00;0.70;;;9.40;99.90;;;;;;5016733;28;20132;-69
2021/04/12 09:42:57;;;;;;;2.35;0.93;;;9.60;99.90;;;;;;5016893;28;20064;-68
2021/04/12 09:46:10;;;;;;;5.57;1.00;;;9.80;99.90;;;;;;5014424;28;20455;-69
2021/04/12 09:48:54;;;;;;;11.85;1.13;;;9.50;99.90;;;;;;5015859;28;20057;-69
2021/04/12 09:51:52;;;;;;;5.68;1.50;;;9.30;99.90;;;;;;5015790;28;20497;-69
2021/04/12 09:54:30;;;;;;;4.40;0.75;;;9.60;99.90;;;;;;5015996;28;20036;-69
2021/04/12 09:57:30;;;;;;;4.57;0.70;;;9.80;99.90;;;;;;5017054;28;20080;-69
2021/04/12 10:00:31;;;;;;;5.10;1.27;;;10.10;99.90;;;;;;5016142;28;20099;-69
2021/04/12 10:03:02;;;;;;;4.05;0.82;;;10.30;99.90;;;;;;5014802;28;20838;-69
2021/04/12 10:06:05;;;;;;;2.50;0.80;;;9.80;99.90;;;;;;5014630;28;20178;-69
2021/04/12 10:08:44;;;;;;;6.18;1.02;;;9.60;99.90;;;;;;5015690;28;20488;-69
2021/04/12 10:11:18;;;;;;;4.18;1.30;;;9.20;99.90;;;;;;5032551;28;20129;-70
2021/04/12 10:14:04;;;;;;;4.95;1.27;;;9.60;99.90;;;;;;5016329;28;20029;-69
2021/04/12 10:16:35;;;;;;;5.35;0.75;;;10.50;99.90;;;;;;5016004;28;20083;-69
2021/04/12 10:19:09;;;;;;;4.85;0.90;;;10.60;99.90;;;;;;5013915;28;20428;-69
2021/04/12 10:22:02;;;;;;;4.05;1.10;;;10.20;99.90;;;;;;5013977;28;20037;-69
2021/04/12 10:24:40;;;;;;;4.38;0.60;;;9.70;99.90;;;;;;5013560;28;20029;-69
2021/04/12 10:27:18;;;;;;;4.22;0.75;;;9.70;99.90;;;;;;5015136;28;20041;-69
2021/04/12 10:29:57;;;;;;;5.78;1.25;;;9.50;99.90;;;;;;5016570;28;20513;-69
2021/04/12 10:32:36;;;;;;;4.07;1.08;;;9.70;99.90;;;;;;5015086;28;20400;-70
2021/04/12 10:35:14;;;;;;;7.22;0.98;;;9.80;99.90;;;;;;5013979;28;20033;-69
2021/04/12 10:37:52;;;;;;;4.85;1.02;;;9.60;99.90;;;;;;5014096;28;20027;-70
2021/04/12 10:40:39;;;;;;;7.85;1.13;;;10.00;99.90;;;;;;5013142;28;20037;-70
2021/04/12 10:43:19;;;;;;;4.57;1.15;;;9.60;99.90;;;;;;5007263;28;20033;-70
2021/04/12 10:45:51;;;;;;;4.75;0.88;;;9.30;99.90;;;;;;5015328;28;20192;-69
2021/04/12 10:48:17;;;;;;;4.70;0.95;;;9.50;99.90;;;;;;5016750;28;20037;-70
2021/04/12 10:51:10;;;;;;;3.28;0.80;;;9.50;99.90;;;;;;5016534;28;20119;-69
2021/04/12 10:54:11;;;;;;;1.45;0.80;;;9.00;99.90;;;;;;5011860;28;20396;-69
2021/04/12 10:57:03;;;;;;;4.88;0.90;;;8.30;99.90;;;;;;5014828;28;20061;-70
2021/04/12 10:59:52;;;;;;;3.58;0.95;;;7.60;99.90;;;;;;5015609;28;20034;-69
2021/04/12 11:02:41;;;;;;;4.65;0.60;;;6.60;99.90;;;;;;5015042;28;20029;-69
2021/04/12 11:05:18;;;;;;;2.33;0.60;;;6.00;99.90;;;;;;5018863;28;20026;-69
2021/04/12 11:07:53;;;;;;;2.55;0.75;;;5.50;99.90;;;;;;5019711;28;20441;-69
2021/04/12 11:10:42;;;;;;;2.20;0.68;;;5.30;99.90;;;;;;5011601;28;20064;-69
2021/04/12 11:13:37;;;;;;;4.07;1.08;;;5.20;99.90;;;;;;5018807;28;20032;-69
2021/04/12 11:16:21;;;;;;;6.40;0.85;;;5.20;99.90;;;;;;5018245;28;20463;-69
2021/04/12 11:19:24;;;;;;;7.28;0.90;;;5.20;99.90;;;;;;5020240;28;20598;-69
2021/04/12 11:22:27;;;;;;;6.13;1.13;;;5.30;99.90;;;;;;5019242;28;20053;-69
2021/04/12 11:25:06;;;;;;;5.75;1.23;;;5.80;99.90;;;;;;5016688;28;20044;-69
2021/04/12 11:28:09;;;;;;;4.05;1.33;;;6.80;99.90;;;;;;5018511;28;20075;-69
2021/04/12 11:30:44;;;;;;;4.90;1.35;;;8.10;99.90;;;;;;5020017;28;20033;-70
2021/04/12 11:33:22;;;;;;;4.22;0.93;;;9.30;99.90;;;;;;5016539;28;20583;-70
2021/04/12 11:36:20;;;;;;;4.68;0.98;;;9.40;99.90;;;;;;5015646;28;20462;-69
2021/04/12 11:39:00;;;;;;;3.65;1.08;;;9.30;99.90;;;;;;5017972;28;20031;-70
2021/04/12 11:41:29;;;;;;;;;;;9.20;99.90;;;;;;5018867;28;20618;-69
2021/04/12 11:44:00;;;;;;;3.78;0.70;;;8.00;99.90;;;;;;5018057;28;19909;-69
2021/04/12 11:46:56;;;;;;;2.00;0.80;;;6.90;99.90;;;;;;5018795;28;20033;-69
2021/04/12 11:49:39;;;;;;;5.63;0.90;;;6.70;99.90;;;;;;5016426;28;20092;-69
2021/04/12 11:52:37;;;;;;;5.60;1.42;;;7.80;99.90;;;;;;5017549;28;20073;-70
2021/04/12 11:55:14;;;;;;;7.00;1.15;;;9.00;99.90;;;;;;4994857;28;20175;-70
2021/04/12 11:57:48;;;;;;;4.22;0.70;;;9.70;99.90;;;;;;5018187;28;20434;-69
2021/04/12 12:00:19;;;;;;;4.78;0.85;;;10.20;99.90;;;;;;5016412;28;20069;-70
2021/04/12 12:02:57;;;;;;;5.72;1.10;;;10.40;99.90;;;;;;5016994;28;20045;-71
2021/04/12 12:05:35;;;;;;;1.55;0.50;;;10.60;99.90;;;;;;5018632;28;20037;-70
2021/04/12 12:08:06;;;;;;;3.65;0.90;;;10.30;99.90;;;;;;5017703;28;20021;-70
2021/04/12 12:10:47;;;;;;;6.45;1.00;;;9.90;99.90;;;;;;5017460;28;20124;-70
2021/04/12 12:13:39;;;;;;;3.97;1.10;;;9.90;99.90;;;;;;5016662;28;20030;-70
2021/04/12 12:16:30;;;;;;;6.88;1.17;;;10.00;99.90;;;;;;5017347;28;20030;-70
2021/04/12 12:19:18;;;;;;;4.57;0.75;;;10.10;99.90;;;;;;5016129;28;20042;-70
2021/04/12 12:21:48;;;;;;;4.63;0.82;;;10.00;99.90;;;;;;5014832;28;20049;-70
2021/04/12 12:24:33;;;;;;;4.28;0.93;;;10.00;99.90;;;;;;5017366;28;20038;-70
2021/04/12 12:27:12;;;;;;;3.97;0.95;;;9.70;99.90;;;;;;5016861;28;20378;-70
2021/04/12 12:29:48;;;;;;;4.65;1.00;;;9.50;99.90;;;;;;5018537;28;20505;-70
2021/04/12 12:32:15;;;;;;;3.33;1.08;;;9.50;99.90;;;;;;5016584;28;20385;-70
2021/04/12 12:34:55;;;;;;;7.53;1.25;;;9.50;99.90;;;;;;5017688;28;20389;-70
2021/04/12 12:37:58;;;;;;;5.15;0.95;;;10.00;99.90;;;;;;5017102;28;20108;-70
2021/04/12 12:40:35;;;;;;;8.73;1.35;;;10.80;99.90;;;;;;5015263;28;20037;-70
2021/04/12 12:43:12;;;;;;;3.65;0.90;;;10.80;99.90;;;;;;5018330;28;20133;-70
2021/04/12 12:45:40;;;;;;;3.42;1.08;;;9.90;99.90;;;;;;5017256;28;20381;-70
2021/04/12 12:48:18;;;;;;;5.40;1.00;;;9.40;99.90;;;;;;5016936;28;20037;-71
2021/04/12 12:50:50;;;;;;;3.00;0.70;;;9.10;99.90;;;;;;5016777;28;20570;-70
2021/04/12 12:53:23;;;;;;;10.00;1.48;;;8.80;99.90;;;;;;5016290;28;20111;-70
2021/04/12 12:56:04;;;;;;;4.22;0.90;;;8.60;99.90;;;;;;5018019;28;20041;-70
2021/04/12 12:58:31;;;;;;;2.80;0.60;;;9.00;99.90;;;;;;5017239;28;20382;-70
2021/04/12 13:01:03;;;;;;;6.50;0.73;;;9.00;99.90;;;;;;5016212;28;20393;-70
2021/04/12 13:03:43;;;;;;;5.47;1.00;;;8.90;99.90;;;;;;5017590;28;20150;-70
2021/04/12 13:06:26;;;;;;;5.75;1.40;;;9.10;99.90;;;;;;5018176;28;20127;-70
2021/04/12 13:08:56;;;;;;;4.93;0.88;;;9.50;99.90;;;;;;5017167;28;20045;-70
2021/04/12 13:11:42;;;;;;;6.10;1.23;;;10.10;99.90;;;;;;5016299;28;20060;-70
2021/04/12 13:14:36;;;;;;;4.85;0.80;;;10.30;99.90;;;;;;5017569;28;20570;-70
2021/04/12 13:17:28;;;;;;;3.28;0.82;;;9.90;99.90;;;;;;5016871;28;20038;-70
2021/04/12 13:20:01;;;;;;;4.75;0.70;;;9.00;99.90;;;;;;5016622;28;20034;-70
2021/04/12 13:22:43;;;;;;;1.88;0.60;;;9.30;99.90;;;;;;5016795;28;20512;-70
2021/04/12 13:25:22;;;;;;;2.63;1.42;;;9.50;99.90;;;;;;5014291;28;20068;-70
2021/04/12 13:27:58;;;;;;;10.18;1.23;;;9.30;99.90;;;;;;5016389;28;20041;-70
2021/04/12 13:30:29;;;;;;;7.88;0.98;;;8.80;99.90;;;;;;5015648;28;20029;-70
2021/04/12 13:33:06;;;;;;;4.78;1.02;;;8.70;99.90;;;;;;5010232;28;20048;-70
2021/04/12 13:35:36;;;;;;;2.47;0.60;;;8.80;99.90;;;;;;5013840;28;20353;-69
2021/04/12 13:38:17;;;;;;;;;;;8.60;99.90;;;;;;5015812;28;20022;-69
2021/04/12 13:40:58;;;;;;;3.60;0.70;;;8.30;99.90;;;;;;5017649;28;20083;-70
2021/04/12 13:43:30;;;;;;;4.78;1.20;;;8.00;99.90;;;;;;5015573;28;20028;-69
2021/04/12 13:46:06;;;;;;;1.48;0.50;;;7.90;99.90;;;;;;5017163;28;20036;-69
2021/04/12 13:48:36;;;;;;;1.42;0.45;;;7.70;99.90;;;;;;5016335;28;20080;-69
2021/04/12 13:51:08;;;;;;;2.85;0.90;;;7.60;99.90;;;;;;5014713;28;20211;-69
2021/04/12 13:53:44;;;;;;;4.60;1.40;;;7.50;99.90;;;;;;5015643;28;20687;-69
2021/04/12 13:56:35;;;;;;;4.35;1.10;;;7.30;99.90;;;;;;5017156;28;20040;-70
2021/04/12 13:59:03;;;;;;;3.60;1.35;;;7.00;99.90;;;;;;5009836;28;20582;-70
2021/04/12 14:01:55;;;;;;;3.20;0.85;;;6.60;99.90;;;;;;5016598;28;20077;-70
2021/04/12 14:04:24;;;;;;;4.38;0.90;;;6.60;99.90;;;;;;5012433;28;20037;-70
2021/04/12 14:07:11;;;;;;;8.65;1.50;;;6.80;99.90;;;;;;5016902;28;20060;-70
2021/04/12 14:09:39;;;;;;;6.57;1.30;;;6.90;99.90;;;;;;5016867;28;20132;-70
2021/04/12 14:12:05;;;;;;;9.88;1.10;;;6.80;99.90;;;;;;5015395;28;20509;-70
2021/04/12 14:14:43;;;;;;;2.95;0.60;;;6.60;99.90;;;;;;5016715;28;20112;-69
2021/04/12 14:17:22;;;;;;;8.32;1.73;;;6.00;99.90;;;;;;5014042;28;20456;-69
2021/04/12 14:19:51;;;;;;;4.88;1.15;;;5.50;99.90;;;;;;5016349;28;20045;-69
2021/04/12 14:22:33;;;;;;;3.70;0.60;;;5.30;99.90;;;;;;5016236;28;20075;-69
2021/04/12 14:25:31;;;;;;;10.73;1.27;;;5.40;99.90;;;;;;5016661;28;20199;-69
2021/04/12 14:28:09;;;;;;;8.05;1.10;;;5.60;99.90;;;;;;5014541;28;20191;-69
2021/04/12 14:30:55;;;;;;;15.27;1.45;;;5.70;99.90;;;;;;5014563;28;20072;-69
2021/04/12 14:33:40;;;;;;;4.40;1.10;;;5.80;99.90;;;;;;5015960;28;20032;-69
2021/04/12 14:36:19;;;;;;;5.45;1.20;;;6.00;99.90;;;;;;5017051;28;20036;-69